Time;durP1;ratioP1;P1;durP2;ratioP2;P2;SDS_P1;SDS_P2;PMS_P1;PMS_P2;Temp;Humidity;BMP_temperature;BMP_pressure;BME280_temperature;BME280_humidity;BME280_pressure;Samples;Min_cycle;Max_cycle;Signal;HPM_P1;HPM_P2
2022/12/24 00:00:25;;;;;;;209.60;107.57;;;;;;;-0.67;81.69;100158.53;123090;1099;104326;-78
2022/12/24 00:03:16;;;;;;;209.20;106.75;;;;;;;-0.72;81.83;100165.92;123116;1099;104363;-78
2022/12/24 00:05:47;;;;;;;205.80;109.30;;;;;;;-0.75;81.98;100165.69;123185;1099;104296;-79
2022/12/24 00:08:19;;;;;;;205.60;109.20;;;;;;;-0.78;82.24;100163.80;123382;1099;104267;-78
2022/12/24 00:10:52;;;;;;;206.90;107.97;;;;;;;-0.81;82.00;100173.88;123496;1099;104419;-78
2022/12/24 00:13:24;;;;;;;198.23;103.60;;;;;;;-0.83;82.23;100174.53;123221;1099;104344;-78
2022/12/24 00:15:55;;;;;;;185.00;99.05;;;;;;;-0.88;81.94;100165.56;123040;1099;104408;-78
2022/12/24 00:18:27;;;;;;;176.15;96.20;;;;;;;-0.92;81.95;100174.72;123088;1099;104332;-78
2022/12/24 00:20:58;;;;;;;187.80;102.55;;;;;;;-1.01;81.62;100167.20;123101;1099;104245;-78
2022/12/24 00:23:29;;;;;;;181.47;100.37;;;;;;;-1.02;81.80;100172.24;123092;1099;104347;-80
2022/12/24 00:26:00;;;;;;;179.37;99.47;;;;;;;-1.07;81.34;100163.28;123069;1102;104408;-76
2022/12/24 00:28:31;;;;;;;190.70;99.23;;;;;;;-1.12;82.54;100161.23;123140;1099;104300;-79
2022/12/24 00:31:09;;;;;;;185.13;100.03;;;;;;;-1.15;82.20;100158.42;123077;1099;104341;-78
2022/12/24 00:33:40;;;;;;;188.47;100.47;;;;;;;-1.12;82.38;100155.20;123147;1099;104293;-78
2022/12/24 00:36:12;;;;;;;189.57;100.30;;;;;;;-1.10;81.58;100154.52;123072;1099;104971;-78
2022/12/24 00:38:44;;;;;;;189.07;96.77;;;;;;;-1.06;82.23;100152.17;122994;1099;104616;-78
2022/12/24 00:41:26;;;;;;;187.83;99.83;;;;;;;-1.07;81.07;100151.28;123083;1099;104284;-78
2022/12/24 00:44:00;;;;;;;186.10;98.90;;;;;;;-1.02;82.43;100142.22;123071;1102;104285;-78
2022/12/24 00:46:33;;;;;;;189.57;99.00;;;;;;;-0.98;82.64;100140.77;123091;1099;104705;-78
2022/12/24 00:49:05;;;;;;;182.87;100.03;;;;;;;-0.99;81.79;100137.30;123266;1099;104367;-78
2022/12/24 00:51:37;;;;;;;181.67;98.13;;;;;;;-0.99;82.39;100139.88;123169;1099;104373;-78
2022/12/24 00:54:09;;;;;;;189.37;99.97;;;;;;;-0.97;81.93;100134.84;123169;1099;104271;-78
2022/12/24 00:56:40;;;;;;;187.00;100.40;;;;;;;-0.95;81.57;100134.19;123209;1099;104307;-78
2022/12/24 00:59:12;;;;;;;183.73;98.40;;;;;;;-0.92;81.34;100134.42;123060;1099;104275;-77
2022/12/24 01:01:43;;;;;;;188.57;101.67;;;;;;;-0.88;82.05;100129.50;123202;1099;104645;-78
2022/12/24 01:07:03;;;;;;;188.50;98.50;;;;;;;-0.92;82.17;100130.92;123139;1099;104644;-78
2022/12/24 01:09:35;;;;;;;189.87;102.80;;;;;;;-0.94;81.92;100127.34;123044;1099;104323;-78
2022/12/24 01:12:06;;;;;;;195.03;101.23;;;;;;;-0.98;82.43;100130.47;123119;1099;104220;-77
2022/12/24 01:14:38;;;;;;;208.30;110.00;;;;;;;-1.00;81.72;100137.19;123040;1099;104242;-78
2022/12/24 01:17:10;;;;;;;207.00;108.63;;;;;;;-1.04;81.77;100125.77;123060;1099;104242;-77
2022/12/24 01:19:41;;;;;;;186.87;103.90;;;;;;;-1.09;82.45;100127.99;123063;1099;104280;-77
2022/12/24 01:22:13;;;;;;;190.97;104.27;;;;;;;-1.06;82.49;100129.00;123184;1099;104312;-77
2022/12/24 01:24:44;;;;;;;186.37;98.67;;;;;;;-1.06;82.90;100116.13;123188;1099;104398;-78
2022/12/24 01:27:15;;;;;;;172.97;91.70;;;;;;;-1.06;82.34;100116.13;123167;1099;104403;-78
2022/12/24 01:29:47;;;;;;;175.73;94.90;;;;;;;-1.09;82.86;100112.55;123163;1099;104799;-78
2022/12/24 01:32:18;;;;;;;168.43;87.10;;;;;;;-1.10;82.68;100115.00;123056;1099;104216;-78
2022/12/24 01:34:49;;;;;;;176.03;91.60;;;;;;;-1.16;81.95;100106.81;123111;1099;104334;-78
2022/12/24 01:37:20;;;;;;;176.50;90.35;;;;;;;-1.19;82.18;100116.88;123337;1099;104367;-79
2022/12/24 01:43:22;;;;;;;166.37;89.33;;;;;;;-1.23;82.95;100113.19;123202;1099;106328;-78
2022/12/24 01:45:47;;;;;;;171.27;87.40;;;;;;;-1.25;82.68;100113.84;123146;1099;104251;-77
2022/12/24 01:48:40;;;;;;;164.87;85.20;;;;;;;-1.27;83.23;100108.57;123119;1099;104291;-78
2022/12/24 01:51:19;;;;;;;158.03;84.37;;;;;;;-1.28;82.92;100111.91;123406;1099;104236;-78
2022/12/24 01:53:56;;;;;;;171.33;88.47;;;;;;;-1.23;82.48;100108.03;123405;1099;104412;-77
2022/12/24 01:56:29;;;;;;;158.23;85.93;;;;;;;-1.14;83.02;100103.59;123432;1099;104634;-79
2022/12/24 01:59:06;;;;;;;162.87;87.70;;;;;;;-1.06;83.46;100109.31;123515;1099;104290;-79
2022/12/24 02:01:38;;;;;;;164.33;86.73;;;;;;;-0.99;83.23;100111.55;123199;1099;109619;-77
2022/12/24 02:04:17;;;;;;;155.03;84.00;;;;;;;-0.92;82.84;100111.23;123139;1098;104297;-78
2022/12/24 02:06:49;;;;;;;159.93;83.50;;;;;;;-0.90;82.38;100113.93;123131;1099;104415;-77
2022/12/24 02:09:20;;;;;;;156.95;84.25;;;;;;;-0.86;82.71;100109.89;123102;1099;104290;-78
2022/12/24 02:11:52;;;;;;;162.70;85.03;;;;;;;-0.83;82.27;100107.55;123505;1099;104238;-78
2022/12/24 02:14:25;;;;;;;160.90;86.40;;;;;;;-0.79;82.40;100104.43;123501;1098;104655;-78
2022/12/24 02:17:09;;;;;;;160.97;86.17;;;;;;;-0.75;83.43;100106.43;123476;1098;104315;-78
2022/12/24 02:20:15;;;;;;;156.90;82.30;;;;;;;-0.73;83.55;100104.88;123273;1099;104341;-79
2022/12/24 02:23:12;;;;;;;152.47;83.07;;;;;;;-0.75;82.92;100112.50;123069;1099;104242;-77
2022/12/24 02:25:58;;;;;;;155.13;84.43;;;;;;;-0.78;82.97;100104.55;123132;1099;104255;-77
2022/12/24 02:28:44;;;;;;;166.07;87.33;;;;;;;-0.74;83.32;100106.54;123169;1099;104245;-77
2022/12/24 02:31:20;;;;;;;164.23;88.77;;;;;;;-0.69;83.58;100098.27;123212;1099;104229;-77
2022/12/24 02:33:57;;;;;;;158.60;86.33;;;;;;;-0.65;83.06;100089.99;123147;1099;104495;-78
2022/12/24 02:36:36;;;;;;;167.27;89.20;;;;;;;-0.61;83.09;100090.33;123065;1102;104350;-77
2022/12/24 02:39:12;;;;;;;157.37;82.87;;;;;;;-0.58;82.83;100097.37;123186;1099;104255;-79
2022/12/24 02:42:07;;;;;;;164.83;87.37;;;;;;;-0.61;83.05;100094.56;123189;1099;104222;-78
2022/12/24 02:44:44;;;;;;;156.33;83.90;;;;;;;-0.64;83.66;100087.53;123089;1099;104254;-78
2022/12/24 02:47:17;;;;;;;160.97;83.73;;;;;;;-0.66;83.08;100088.19;123109;1099;104395;-78
2022/12/24 02:49:49;;;;;;;162.77;86.63;;;;;;;-0.71;83.11;100081.81;123130;1099;104281;-77
2022/12/24 02:52:38;;;;;;;162.27;88.73;;;;;;;-0.70;83.04;100068.12;123087;1099;104319;-78
2022/12/24 02:55:16;;;;;;;159.10;83.87;;;;;;;-0.68;82.97;100080.34;123186;1099;104344;-77
2022/12/24 02:58:07;;;;;;;161.10;87.37;;;;;;;-0.66;83.18;100075.30;123407;1099;104450;-76
2022/12/24 03:00:51;;;;;;;173.50;89.77;;;;;;;-0.62;83.72;100082.48;123175;1099;104507;-77
2022/12/24 03:03:38;;;;;;;165.97;88.60;;;;;;;-0.62;82.80;100088.52;123141;1099;104274;-77
2022/12/24 03:06:19;;;;;;;161.93;87.67;;;;;;;-0.62;82.73;100090.22;123106;1098;104267;-77
2022/12/24 03:08:55;;;;;;;159.97;86.13;;;;;;;-0.57;83.85;100088.86;123153;1099;104281;-78
2022/12/24 03:11:27;;;;;;;164.10;89.77;;;;;;;-0.60;83.34;100088.64;123265;1099;104267;-77
2022/12/24 03:14:01;;;;;;;166.97;88.30;;;;;;;-0.64;83.74;100092.68;123444;1099;104387;-77
2022/12/24 03:16:32;;;;;;;167.22;91.97;;;;;;;-0.63;83.22;100083.26;123144;1099;104616;-78
2022/12/24 03:19:03;;;;;;;160.30;87.33;;;;;;;-0.62;83.03;100083.38;123446;1099;104277;-78
2022/12/24 03:21:41;;;;;;;161.33;88.93;;;;;;;-0.62;82.94;100082.48;123363;1099;104319;-77
2022/12/24 03:24:13;;;;;;;155.73;84.83;;;;;;;-0.60;83.40;100080.91;123151;1099;104275;-78
2022/12/24 03:26:47;;;;;;;161.60;85.90;;;;;;;-0.62;83.62;100082.48;123172;1099;104373;-78
2022/12/24 03:29:19;;;;;;;158.10;83.30;;;;;;;-0.65;82.92;100079.69;123228;1099;104328;-78
2022/12/24 03:31:53;;;;;;;163.83;90.23;;;;;;;-0.64;83.39;100076.30;123306;1099;104286;-78
2022/12/24 03:34:24;;;;;;;164.37;88.70;;;;;;;-0.63;83.39;100083.26;123384;1099;104322;-80
2022/12/24 03:36:55;;;;;;;165.60;86.80;;;;;;;-0.65;83.94;100077.98;123154;1099;104345;-78
2022/12/24 03:39:26;;;;;;;162.60;85.57;;;;;;;-0.66;83.33;100078.77;123476;1099;104307;-79
2022/12/24 03:41:58;;;;;;;159.10;86.07;;;;;;;-0.66;83.51;100076.19;123287;1099;104220;-78
2022/12/24 03:44:29;;;;;;;158.53;89.67;;;;;;;-0.68;82.85;100075.19;123123;1099;104274;-78
2022/12/24 03:47:00;;;;;;;156.80;85.17;;;;;;;-0.69;83.15;100072.50;123114;1099;104265;-78
2022/12/24 03:49:31;;;;;;;166.90;89.60;;;;;;;-0.72;82.95;100073.16;123139;1099;104250;-78
2022/12/24 03:52:03;;;;;;;164.23;88.63;;;;;;;-0.75;83.07;100081.58;123138;1099;104376;-78
2022/12/24 03:54:34;;;;;;;166.93;89.10;;;;;;;-0.76;83.17;100081.47;123049;1099;104361;-78
2022/12/24 03:57:05;;;;;;;165.00;89.60;;;;;;;-0.75;83.65;100080.66;123356;1099;104677;-78
2022/12/24 03:59:37;;;;;;;158.00;84.63;;;;;;;-0.77;82.92;100079.66;123428;1099;104303;-78
2022/12/24 04:02:08;;;;;;;157.07;85.00;;;;;;;-0.81;83.39;100083.70;123338;1099;104169;-78
2022/12/24 04:04:39;;;;;;;159.23;83.07;;;;;;;-0.82;83.73;100093.89;123063;1099;104242;-78
2022/12/24 04:07:11;;;;;;;147.63;82.70;;;;;;;-0.83;83.65;100103.28;123056;1099;104338;-78
2022/12/24 04:09:42;;;;;;;154.90;82.80;;;;;;;-0.81;83.20;100101.73;123122;1099;104313;-78
2022/12/24 04:12:13;;;;;;;151.57;81.03;;;;;;;-0.78;84.25;100098.47;123028;1099;104363;-78
2022/12/24 04:14:44;;;;;;;147.73;80.13;;;;;;;-0.74;84.27;100091.08;123109;1099;104245;-78
2022/12/24 04:17:16;;;;;;;155.85;84.40;;;;;;;-0.70;83.77;100092.23;123041;1099;104271;-78
2022/12/24 04:19:47;;;;;;;150.90;79.80;;;;;;;-0.68;83.45;100093.23;123088;1099;104252;-79
2022/12/24 04:22:18;;;;;;;158.27;83.20;;;;;;;-0.69;83.74;100086.27;123086;1099;104360;-78
2022/12/24 04:24:49;;;;;;;160.63;85.17;;;;;;;-0.65;84.13;100087.41;123114;1099;104301;-78
2022/12/24 04:27:21;;;;;;;150.50;82.13;;;;;;;-0.62;83.90;100100.53;123218;1099;104262;-79
2022/12/24 04:29:52;;;;;;;152.97;77.90;;;;;;;-0.64;83.23;100092.68;123155;1099;104348;-78
2022/12/24 04:32:24;;;;;;;139.67;77.33;;;;;;;-0.63;83.67;100094.45;123083;1099;105536;-78
2022/12/24 04:34:56;;;;;;;138.93;74.23;;;;;;;-0.64;83.86;100099.49;123122;1099;104360;-78
2022/12/24 04:37:27;;;;;;;135.53;73.73;;;;;;;-0.66;83.58;100099.38;123079;1098;104373;-78
2022/12/24 04:39:58;;;;;;;140.97;76.07;;;;;;;-0.67;83.76;100096.69;123167;1097;104695;-77
2022/12/24 04:42:29;;;;;;;147.67;81.10;;;;;;;-0.68;84.01;100100.07;123285;1099;104223;-78
2022/12/24 04:45:00;;;;;;;143.73;75.10;;;;;;;-0.73;83.13;100098.04;123104;1099;104431;-78
2022/12/24 04:47:32;;;;;;;141.65;76.75;;;;;;;-0.76;83.69;100104.66;123106;1099;104361;-77
2022/12/24 04:50:03;;;;;;;148.95;77.75;;;;;;;-0.79;83.64;100097.58;123117;1099;104377;-78
2022/12/24 04:52:35;;;;;;;142.80;75.43;;;;;;;-0.79;84.10;100099.28;123143;1099;104421;-78
2022/12/24 04:55:07;;;;;;;140.97;77.40;;;;;;;-0.80;83.66;100090.63;123235;1099;117860;-78
2022/12/24 04:57:39;;;;;;;147.75;78.80;;;;;;;-0.79;83.83;100097.58;123103;1099;104341;-78
2022/12/24 05:00:12;;;;;;;154.35;84.40;;;;;;;-0.80;83.22;100092.31;123096;1098;104488;-78
2022/12/24 05:02:43;;;;;;;156.80;84.27;;;;;;;-0.82;84.26;100097.36;123168;1098;104367;-78
2022/12/24 05:05:14;;;;;;;153.37;83.47;;;;;;;-0.80;83.71;100090.63;123122;1099;104377;-78
2022/12/24 05:07:45;;;;;;;160.70;84.47;;;;;;;-0.79;84.18;100100.16;123134;1099;104280;-78
2022/12/24 05:10:17;;;;;;;158.90;86.53;;;;;;;-0.76;83.76;100102.97;123144;1099;104245;-78
2022/12/24 05:12:48;;;;;;;161.40;87.30;;;;;;;-0.71;84.10;100093.00;123140;1099;104345;-78
2022/12/24 05:15:19;;;;;;;154.30;84.20;;;;;;;-0.69;83.65;100094.00;123075;1099;110684;-78
2022/12/24 05:17:51;;;;;;;158.73;85.47;;;;;;;-0.67;84.55;100081.23;123365;1099;104418;-78
2022/12/24 05:20:22;;;;;;;154.05;83.40;;;;;;;-0.67;84.41;100084.72;123504;1099;104357;-78
2022/12/24 05:28:37;;;;;;;161.60;88.80;;;;;;;-0.78;84.27;100104.55;123108;1099;104226;-77
2022/12/24 05:31:09;;;;;;;159.75;83.65;;;;;;;-0.82;83.99;100107.66;123132;1099;104653;-78
2022/12/24 05:33:40;;;;;;;159.93;87.00;;;;;;;-0.88;83.71;100117.51;123129;1099;104398;-78
2022/12/24 05:36:13;;;;;;;162.20;81.63;;;;;;;-0.94;83.60;100106.74;123382;1098;107003;-78
2022/12/24 05:38:44;;;;;;;159.70;83.57;;;;;;;-1.01;83.90;100107.97;123157;1099;104271;-77
2022/12/24 05:41:16;;;;;;;161.20;84.43;;;;;;;-1.07;83.68;100112.66;123265;1099;104319;-77
2022/12/24 05:44:02;;;;;;;173.23;90.60;;;;;;;-1.14;84.27;100107.81;123082;1099;104338;-77
2022/12/24 05:46:34;;;;;;;174.77;91.37;;;;;;;-1.21;84.07;100114.19;123077;1099;117966;-78
2022/12/24 05:49:05;;;;;;;180.23;93.77;;;;;;;-1.21;83.58;100110.73;123137;1099;104332;-79
2022/12/24 05:51:36;;;;;;;180.20;91.73;;;;;;;-1.21;83.65;100114.19;123139;1099;104315;-78
2022/12/24 05:54:08;;;;;;;179.93;97.07;;;;;;;-1.22;83.64;100121.80;123128;1099;104351;-77
2022/12/24 05:56:39;;;;;;;181.57;96.20;;;;;;;-1.20;84.06;100117.65;123166;1099;104335;-77
2022/12/24 05:59:10;;;;;;;185.03;96.57;;;;;;;-1.18;83.57;100111.84;123399;1099;104409;-77
2022/12/24 06:01:45;;;;;;;191.03;97.80;;;;;;;-1.16;84.64;100115.42;123363;1099;104191;-78
2022/12/24 06:04:17;;;;;;;189.20;101.23;;;;;;;-1.15;84.52;100113.77;123464;1099;104392;-79
2022/12/24 06:06:49;;;;;;;191.20;101.60;;;;;;;-1.12;84.39;100120.03;123024;1099;104280;-80
2022/12/24 06:09:21;;;;;;;195.63;101.37;;;;;;;-1.10;84.21;100121.04;123094;1099;104252;-78
2022/12/24 06:11:52;;;;;;;183.80;98.65;;;;;;;-1.07;84.48;100120.39;123113;1099;104402;-78
2022/12/24 06:14:23;;;;;;;182.03;94.13;;;;;;;-1.06;84.20;100117.04;123068;1098;104399;-78
2022/12/24 06:16:54;;;;;;;177.47;93.13;;;;;;;-1.08;84.36;100121.16;123138;1099;104252;-78
2022/12/24 06:19:26;;;;;;;180.67;95.43;;;;;;;-1.10;84.07;100122.73;123174;1099;104309;-78
2022/12/24 06:21:57;;;;;;;187.10;96.57;;;;;;;-1.10;84.37;100130.45;123179;1099;104462;-79
2022/12/24 06:24:29;;;;;;;189.30;97.60;;;;;;;-1.11;84.84;100128.64;123266;1099;104398;-78
2022/12/24 06:27:00;;;;;;;189.87;97.00;;;;;;;-1.07;84.31;100129.80;123051;1098;104300;-78
2022/12/24 06:29:31;;;;;;;198.50;100.63;;;;;;;-1.03;84.33;100124.08;123159;1099;104274;-78
2022/12/24 06:32:02;;;;;;;196.10;101.90;;;;;;;-0.97;84.40;100122.85;123137;1099;104251;-78
2022/12/24 06:34:33;;;;;;;185.30;99.77;;;;;;;-0.88;84.72;100126.92;123113;1102;104219;-78
2022/12/24 06:37:04;;;;;;;194.20;102.13;;;;;;;-0.81;84.37;100122.34;123091;1099;104255;-78
2022/12/24 06:39:36;;;;;;;193.73;102.50;;;;;;;-0.73;84.74;100130.65;123258;1099;104725;-78
2022/12/24 06:42:07;;;;;;;184.33;98.43;;;;;;;-0.68;84.44;100125.84;123443;1099;104216;-78
2022/12/24 06:44:38;;;;;;;189.33;98.40;;;;;;;-0.62;84.68;100119.45;123182;1099;104299;-78
2022/12/24 06:47:09;;;;;;;193.97;101.57;;;;;;;-0.55;84.19;100124.28;123085;1102;104277;-78
2022/12/24 06:49:40;;;;;;;174.80;89.63;;;;;;;-0.49;84.31;100118.66;123157;1099;104339;-77
2022/12/24 06:52:12;;;;;;;158.03;81.30;;;;;;;-0.45;84.61;100119.77;123199;1099;104300;-79
2022/12/24 06:54:43;;;;;;;154.70;77.57;;;;;;;-0.44;84.77;100116.42;123240;1099;104245;-78
2022/12/24 06:57:14;;;;;;;147.73;74.63;;;;;;;-0.44;84.33;100112.16;123401;1099;104492;-78
2022/12/24 06:59:45;;;;;;;145.27;74.93;;;;;;;-0.42;84.79;100115.77;123743;1099;104220;-79
2022/12/24 07:02:17;;;;;;;145.20;73.90;;;;;;;-0.37;84.62;100119.56;123645;1099;104405;-78
2022/12/24 07:04:48;;;;;;;152.65;74.90;;;;;;;-0.32;84.14;100121.59;123588;1099;104811;-79
2022/12/24 07:07:19;;;;;;;150.10;79.13;;;;;;;-0.26;84.86;100115.19;123595;1099;104348;-78
2022/12/24 07:09:50;;;;;;;146.37;76.93;;;;;;;-0.15;84.96;100100.48;123623;1099;104240;-78
2022/12/24 07:12:22;;;;;;;151.57;75.70;;;;;;;-0.06;84.98;100105.42;123616;1099;104242;-78
2022/12/24 07:14:53;;;;;;;148.00;75.97;;;;;;;-0.03;85.09;100098.79;123562;1099;104826;-78
2022/12/24 07:17:24;;;;;;;149.13;75.20;;;;;;;0.02;84.83;100108.52;123669;1099;104243;-79
2022/12/24 07:19:55;;;;;;;158.20;77.57;;;;;;;0.04;84.80;100104.38;123617;1099;104351;-79
2022/12/24 07:22:26;;;;;;;145.33;74.17;;;;;;;0.07;84.54;100113.23;123574;1099;104242;-79
2022/12/24 07:24:58;;;;;;;150.43;75.93;;;;;;;0.12;85.12;100101.54;123531;1099;104257;-79
2022/12/24 07:27:30;;;;;;;150.03;75.93;;;;;;;0.17;84.70;100107.02;123593;1099;104251;-79
2022/12/24 07:30:01;;;;;;;159.80;80.47;;;;;;;0.26;85.03;100109.38;123615;1099;104226;-78
2022/12/24 07:32:32;;;;;;;161.63;84.80;;;;;;;0.33;84.85;100109.02;123595;1099;104396;-79
2022/12/24 07:35:04;;;;;;;161.70;84.43;;;;;;;0.41;84.86;100106.98;123565;1099;104325;-79
2022/12/24 07:37:35;;;;;;;164.13;86.83;;;;;;;0.53;85.37;100100.97;123590;1099;104315;-79
2022/12/24 07:40:09;;;;;;;156.33;78.73;;;;;;;0.63;84.74;100099.03;123648;1099;104332;-79
2022/12/24 07:42:40;;;;;;;158.63;77.70;;;;;;;0.66;84.70;100091.49;123732;1099;104277;-79
2022/12/24 07:45:12;;;;;;;151.27;77.53;;;;;;;0.72;84.83;100091.91;123615;1099;104268;-79
2022/12/24 07:47:44;;;;;;;147.77;75.17;;;;;;;0.81;85.24;100092.54;123612;1099;104175;-78
2022/12/24 07:50:15;;;;;;;145.70;74.87;;;;;;;0.89;84.70;100088.78;123727;1099;104242;-79
2022/12/24 07:52:46;;;;;;;146.63;74.10;;;;;;;0.96;85.16;100090.08;123706;1099;104491;-79
2022/12/24 07:55:17;;;;;;;143.97;73.33;;;;;;;1.03;84.54;100079.38;123671;1099;104274;-79
2022/12/24 07:57:49;;;;;;;130.65;67.35;;;;;;;1.11;85.43;100082.47;123712;1099;104297;-79
2022/12/24 08:00:21;;;;;;;127.47;69.40;;;;;;;1.22;85.72;100080.59;123626;1099;104242;-78
2022/12/24 08:02:52;;;;;;;126.33;65.33;;;;;;;1.35;85.38;100069.36;123796;1099;104354;-79
2022/12/24 08:05:24;;;;;;;119.87;64.00;;;;;;;1.45;85.41;100061.42;123694;1099;104431;-79
2022/12/24 08:07:55;;;;;;;127.30;64.23;;;;;;;1.57;85.53;100059.63;123675;1099;104603;-79
2022/12/24 08:10:26;;;;;;;126.67;63.67;;;;;;;1.67;85.08;100055.94;123582;1099;104335;-79
2022/12/24 08:12:58;;;;;;;128.37;64.53;;;;;;;1.76;85.21;100048.77;123626;1099;104249;-79
2022/12/24 08:15:29;;;;;;;120.20;62.80;;;;;;;1.84;85.01;100037.98;123679;1099;104733;-79
2022/12/24 08:18:00;;;;;;;119.27;62.13;;;;;;;1.91;85.38;100045.34;123655;1099;104242;-79
2022/12/24 08:20:31;;;;;;;120.03;62.53;;;;;;;2.00;85.36;100032.98;123624;1099;104274;-79
2022/12/24 08:23:02;;;;;;;119.07;62.03;;;;;;;2.10;85.49;100040.53;123616;1099;104257;-79
2022/12/24 08:25:34;;;;;;;118.97;61.70;;;;;;;2.23;85.50;100039.59;123750;1099;104246;-79
2022/12/24 08:28:05;;;;;;;118.73;61.83;;;;;;;2.34;85.31;100033.36;123647;1098;105315;-79
2022/12/24 08:30:37;;;;;;;117.03;62.43;;;;;;;2.46;85.44;100030.64;123657;1099;104341;-79
2022/12/24 08:33:08;;;;;;;115.93;62.07;;;;;;;2.57;85.59;100030.36;123603;1099;104354;-80
2022/12/24 08:35:40;;;;;;;115.00;62.73;;;;;;;2.66;85.69;100031.80;123650;1099;104448;-79
2022/12/24 08:38:11;;;;;;;109.87;58.43;;;;;;;2.74;85.50;100024.48;123709;1099;104306;-80
2022/12/24 08:40:42;;;;;;;110.93;59.50;;;;;;;2.85;85.66;100027.71;123636;1099;104230;-79
2022/12/24 08:43:13;;;;;;;114.47;58.93;;;;;;;2.95;85.38;100023.98;123670;1099;104389;-79
2022/12/24 08:45:45;;;;;;;111.53;59.10;;;;;;;3.03;85.81;100018.42;123659;1099;104325;-80
2022/12/24 08:48:16;;;;;;;117.17;60.67;;;;;;;3.14;85.82;100020.75;123748;1099;104245;-80
2022/12/24 08:50:47;;;;;;;111.57;58.70;;;;;;;3.20;85.04;100011.62;123624;1099;104249;-80
2022/12/24 08:53:18;;;;;;;112.87;58.80;;;;;;;3.28;84.77;100014.65;123715;1099;104402;-80
2022/12/24 08:55:50;;;;;;;112.47;57.93;;;;;;;3.35;85.08;100014.20;123814;1099;104194;-80
2022/12/24 08:58:21;;;;;;;112.47;58.43;;;;;;;3.44;85.39;100013.81;123836;1099;104282;-80
2022/12/24 09:00:52;;;;;;;118.20;59.10;;;;;;;3.53;85.36;100016.03;123786;1099;104258;-80
2022/12/24 09:03:23;;;;;;;115.40;60.97;;;;;;;3.60;85.23;100023.37;123825;1099;104421;-79
2022/12/24 09:05:55;;;;;;;121.10;61.40;;;;;;;3.67;85.24;100020.28;123849;1099;104294;-80
2022/12/24 09:08:27;;;;;;;114.93;60.97;;;;;;;3.74;85.13;100021.51;123859;1099;104361;-80
2022/12/24 09:11:05;;;;;;;110.57;59.23;;;;;;;3.80;85.32;100024.44;123852;1099;104411;-80
2022/12/24 09:13:37;;;;;;;111.53;58.33;;;;;;;3.87;84.92;100017.91;123750;1099;104251;-80
2022/12/24 09:16:09;;;;;;;109.37;57.13;;;;;;;3.92;85.37;100011.25;123908;1099;104268;-78
2022/12/24 09:18:41;;;;;;;107.53;54.33;;;;;;;3.98;85.13;100001.20;123821;1098;104329;-78
2022/12/24 09:21:16;;;;;;;107.87;55.60;;;;;;;4.04;84.89;100005.84;124053;1099;104402;-79
2022/12/24 09:23:48;;;;;;;99.30;53.87;;;;;;;4.11;85.58;100003.66;123817;1099;104405;-79
2022/12/24 09:26:22;;;;;;;104.50;53.40;;;;;;;4.20;84.96;100002.36;123982;1098;104280;-79
2022/12/24 09:28:52;;;;;;;;;;;;;;;4.25;84.33;100009.56;124015;1099;104245;-79
2022/12/24 09:31:23;;;;;;;104.67;54.30;;;;;;;4.31;85.13;100006.41;123997;1099;104236;-79
2022/12/24 09:33:55;;;;;;;99.17;52.27;;;;;;;4.35;85.16;100004.85;123825;1099;104331;-79
2022/12/24 09:36:26;;;;;;;101.93;53.93;;;;;;;4.41;84.68;99987.91;123945;1099;104746;-79
2022/12/24 09:38:58;;;;;;;101.23;53.37;;;;;;;4.46;84.70;99989.02;123967;1099;105668;-79
2022/12/24 09:41:41;;;;;;;99.47;52.83;;;;;;;4.52;84.85;99984.95;124002;1099;104300;-78
2022/12/24 09:44:29;;;;;;;100.63;51.87;;;;;;;4.57;84.47;99983.50;124124;1099;104389;-80
2022/12/24 09:47:04;;;;;;;101.27;51.93;;;;;;;4.63;84.99;99971.70;124009;1099;104254;-78
2022/12/24 09:49:40;;;;;;;93.87;51.03;;;;;;;4.68;85.02;99974.54;123541;1099;104224;-79
2022/12/24 09:52:20;;;;;;;100.37;53.13;;;;;;;4.75;84.97;99963.62;123705;1099;104310;-79
2022/12/24 09:55:02;;;;;;;98.70;50.27;;;;;;;4.81;84.48;99965.64;123818;1099;104293;-79
2022/12/24 09:57:36;;;;;;;101.90;52.50;;;;;;;4.84;84.68;99956.28;123862;1099;104191;-79
2022/12/24 10:00:21;;;;;;;93.97;50.07;;;;;;;4.90;84.90;99958.30;124167;1099;104318;-79
2022/12/24 10:05:46;;;;;;;95.73;50.17;;;;;;;4.99;84.44;99950.96;123992;1099;104282;-79
2022/12/24 10:08:30;;;;;;;96.43;50.90;;;;;;;5.04;84.65;99957.27;124115;1099;104181;-79
2022/12/24 10:11:08;;;;;;;92.72;51.15;;;;;;;5.11;84.52;99955.88;124247;1099;104261;-78
2022/12/24 10:13:50;;;;;;;94.47;50.83;;;;;;;5.16;84.91;99961.31;123998;1099;104271;-79
2022/12/24 10:16:32;;;;;;;95.10;49.20;;;;;;;5.22;84.61;99957.28;123983;1099;104288;-79
2022/12/24 10:19:22;;;;;;;97.20;50.70;;;;;;;5.29;84.52;99962.78;124160;1099;104252;-77
2022/12/24 10:22:06;;;;;;;90.10;48.83;;;;;;;5.33;84.91;99954.29;124240;1099;110115;-79
2022/12/24 10:24:53;;;;;;;93.60;49.17;;;;;;;5.40;84.61;99952.05;123802;1099;104239;-79
2022/12/24 10:27:29;;;;;;;95.30;49.93;;;;;;;5.46;84.63;99950.59;123736;1099;104323;-79
2022/12/24 10:30:12;;;;;;;97.87;50.53;;;;;;;5.49;84.27;99940.32;123859;1099;104373;-78
2022/12/24 10:32:47;;;;;;;94.63;48.80;;;;;;;5.52;84.29;99943.06;124081;1099;104274;-79
2022/12/24 10:35:25;;;;;;;98.77;49.70;;;;;;;5.56;84.55;99942.37;123949;1099;104730;-79
2022/12/24 10:37:59;;;;;;;97.33;49.50;;;;;;;5.61;84.40;99945.19;123922;1099;104348;-78
2022/12/24 10:40:37;;;;;;;89.67;47.97;;;;;;;5.64;84.52;99934.92;124043;1099;104226;-78
2022/12/24 10:43:17;;;;;;;102.97;50.03;;;;;;;5.64;84.19;99933.23;123704;1099;104380;-79
2022/12/24 10:45:51;;;;;;;98.27;50.63;;;;;;;5.62;83.57;99934.84;123961;1099;104699;-78
2022/12/24 10:48:28;;;;;;;96.47;49.20;;;;;;;5.60;83.57;99939.10;124055;1098;104194;-79
2022/12/24 10:51:04;;;;;;;92.77;49.57;;;;;;;5.61;83.95;99934.78;123970;1099;104239;-78
2022/12/24 10:53:42;;;;;;;91.27;47.93;;;;;;;5.58;83.73;99932.95;124037;1099;104303;-79
2022/12/24 10:56:17;;;;;;;92.47;48.00;;;;;;;5.54;84.04;99939.70;123958;1099;104365;-78
2022/12/24 10:58:53;;;;;;;92.90;48.07;;;;;;;5.54;84.10;99944.90;124013;1099;104274;-79
2022/12/24 11:01:45;;;;;;;94.67;46.80;;;;;;;5.55;84.24;99941.48;123978;1099;104272;-79
2022/12/24 11:04:20;;;;;;;90.13;46.53;;;;;;;5.55;84.07;99938.89;124012;1099;104297;-79
2022/12/24 11:07:02;;;;;;;86.07;45.57;;;;;;;5.52;84.17;99946.55;124116;1099;104270;-79
2022/12/24 11:09:35;;;;;;;89.35;46.75;;;;;;;5.57;83.99;99945.05;123910;1099;104297;-79
2022/12/24 11:12:17;;;;;;;84.73;45.33;;;;;;;5.64;84.11;99946.25;124055;1098;104243;-79
2022/12/24 11:14:48;;;;;;;87.63;45.53;;;;;;;5.72;83.96;99946.60;123997;1098;104321;-80
2022/12/24 11:17:24;;;;;;;86.25;46.05;;;;;;;5.78;84.01;99948.58;123966;1099;104274;-80
2022/12/24 11:19:55;;;;;;;85.40;44.47;;;;;;;5.84;83.87;99944.53;124030;1099;104475;-79
2022/12/24 11:22:29;;;;;;;88.20;46.33;;;;;;;5.91;83.76;99945.72;123809;1099;104436;-79
2022/12/24 11:25:06;;;;;;;88.30;45.47;;;;;;;5.92;83.70;99944.88;123913;1099;104243;-79
2022/12/24 11:27:46;;;;;;;83.87;45.17;;;;;;;5.91;84.00;99946.61;123872;1099;104245;-79
2022/12/24 11:30:30;;;;;;;86.23;44.53;;;;;;;5.89;83.83;99943.05;123981;1099;104242;-79
2022/12/24 11:33:22;;;;;;;80.17;43.77;;;;;;;5.89;84.08;99939.53;123975;1099;104326;-79
2022/12/24 11:35:57;;;;;;;88.20;44.47;;;;;;;5.88;83.87;99937.77;124102;1099;104371;-79